createdAt,value
2019-04-10T00:03:31.832Z,20.10
2019-04-10T00:07:23.558Z,20.33
2019-04-10T00:11:22.797Z,18.00
2019-04-10T00:15:22.163Z,21.67
2019-04-10T00:19:22.818Z,17.83
2019-04-10T00:23:21.443Z,15.37
2019-04-10T00:27:20.784Z,24.13
2019-04-10T00:31:19.958Z,16.73
2019-04-10T00:35:19.273Z,18.23
2019-04-10T00:39:18.112Z,16.10
2019-04-10T00:43:17.187Z,16.77
2019-04-10T00:47:15.765Z,19.33
2019-04-10T00:51:17.312Z,17.27
2019-04-10T00:55:16.104Z,18.27
2019-04-10T00:59:15.671Z,17.50
2019-04-10T01:03:17.586Z,20.20
2019-04-10T01:07:16.886Z,14.73
2019-04-10T01:11:15.639Z,15.63
2019-04-10T01:15:14.575Z,20.57
2019-04-10T01:19:13.169Z,17.80
2019-04-10T01:23:11.966Z,15.90
2019-04-10T01:27:14.010Z,19.30
2019-04-10T01:31:12.925Z,20.50
2019-04-10T01:35:11.949Z,19.57
2019-04-10T01:39:12.380Z,17.10
2019-04-10T01:43:14.495Z,17.17
2019-04-10T01:47:11.338Z,16.73
2019-04-10T01:51:10.793Z,17.23
2019-04-10T01:55:21.133Z,14.60
2019-04-10T01:59:10.379Z,18.60
2019-04-10T02:03:09.813Z,16.17
2019-04-10T02:07:11.833Z,18.27
2019-04-10T02:11:10.923Z,15.50
2019-04-10T02:15:13.948Z,15.67
2019-04-10T02:19:10.867Z,13.90
2019-04-10T02:23:10.006Z,19.40
2019-04-10T02:27:08.599Z,17.80
2019-04-10T02:31:07.229Z,15.43
2019-04-10T02:35:10.541Z,19.60
2019-04-10T02:39:17.818Z,18.10
2019-04-10T02:43:09.832Z,16.47
2019-04-10T02:47:08.223Z,16.57
2019-04-10T02:51:07.722Z,19.40
2019-04-10T02:55:09.865Z,14.00
2019-04-10T02:59:09.273Z,15.60
2019-04-10T03:03:07.967Z,15.57
2019-04-10T03:07:07.602Z,15.63
2019-04-10T03:11:11.730Z,18.07
2019-04-10T03:15:10.534Z,14.83
2019-04-10T03:19:09.490Z,22.23
2019-04-10T03:23:15.574Z,18.07
2019-04-10T03:27:14.311Z,17.23
2019-04-10T03:31:13.614Z,15.00
2019-04-10T03:35:18.701Z,18.17
2019-04-10T03:39:17.528Z,20.10
2019-04-10T03:43:17.313Z,17.20
2019-04-10T03:47:17.890Z,18.93
2019-04-10T03:51:16.599Z,16.90
2019-04-10T03:55:15.443Z,15.87
2019-04-10T03:59:14.002Z,20.93
2019-04-10T04:03:12.796Z,19.13
2019-04-10T04:07:11.678Z,17.90
2019-04-10T04:11:10.315Z,21.57
2019-04-10T04:15:11.374Z,21.90
2019-04-10T04:19:10.213Z,19.30
2019-04-10T04:23:14.253Z,22.83
2019-04-10T04:27:13.352Z,18.07
2019-04-10T04:31:12.696Z,18.20
2019-04-10T04:35:13.009Z,19.30
2019-04-10T04:39:21.160Z,23.90
2019-04-10T04:43:12.506Z,20.00
2019-04-10T04:47:11.375Z,19.33
2019-04-10T04:51:09.864Z,22.93
2019-04-10T04:55:09.991Z,22.43
2019-04-10T04:59:10.075Z,18.47
2019-04-10T05:03:10.003Z,22.27
2019-04-10T05:07:08.700Z,22.93
2019-04-10T05:11:07.519Z,18.03
2019-04-10T05:15:07.355Z,38.57
2019-04-10T05:19:06.296Z,22.07
2019-04-10T05:23:06.113Z,19.00
2019-04-10T05:27:07.854Z,26.17
2019-04-10T05:31:06.739Z,22.40
2019-04-10T05:35:08.556Z,19.43
2019-04-10T05:39:08.584Z,21.30
2019-04-10T05:43:07.332Z,20.70
2019-04-10T05:47:06.032Z,24.57
2019-04-10T05:51:07.302Z,22.27
2019-04-10T05:55:06.392Z,19.80
2019-04-10T05:59:05.236Z,18.20
2019-04-10T06:03:04.254Z,19.17
2019-04-10T06:07:03.138Z,20.77
2019-04-10T06:11:02.899Z,25.30
2019-04-10T06:15:04.407Z,19.93
2019-04-10T06:19:03.928Z,18.90
2019-04-10T06:23:05.235Z,18.93
2019-04-10T06:27:08.109Z,27.20
2019-04-10T06:31:06.804Z,17.93
2019-04-10T06:35:08.097Z,17.70
2019-04-10T06:39:08.772Z,22.70
2019-04-10T06:43:09.648Z,18.83
2019-04-10T06:47:10.545Z,19.80
2019-04-10T06:51:10.213Z,17.83
2019-04-10T06:55:09.379Z,16.23
2019-04-10T06:59:08.778Z,21.43
2019-04-10T07:03:08.876Z,14.93
2019-04-10T07:07:11.315Z,20.37
2019-04-10T07:11:10.091Z,18.50
2019-04-10T07:15:08.507Z,15.07
2019-04-10T07:19:10.003Z,15.87
2019-04-10T07:23:07.499Z,12.77
2019-04-10T07:27:06.323Z,16.83
2019-04-10T07:31:10.466Z,16.57
2019-04-10T07:35:09.455Z,18.10
2019-04-10T07:39:08.253Z,19.90
2019-04-10T07:43:06.890Z,22.70
2019-04-10T07:47:05.445Z,13.03
2019-04-10T07:51:04.911Z,19.67
2019-04-10T07:55:06.444Z,17.67
2019-04-10T07:59:06.634Z,19.83
2019-04-10T08:03:06.301Z,22.93
2019-04-10T08:07:05.236Z,21.73
2019-04-10T08:11:05.045Z,18.57
2019-04-10T08:15:06.941Z,16.93
2019-04-10T08:19:20.769Z,16.50
2019-04-10T08:23:19.769Z,20.77
2019-04-10T08:27:19.302Z,18.20
2019-04-10T08:31:19.052Z,17.70
2019-04-10T08:35:17.777Z,19.93
2019-04-10T08:39:28.506Z,19.90
2019-04-10T08:43:16.550Z,17.90
2019-04-10T08:47:15.269Z,17.67
2019-04-10T08:51:15.403Z,18.43
2019-04-10T08:55:13.963Z,15.10
2019-04-10T08:59:13.776Z,17.67
2019-04-10T09:03:12.939Z,18.80
2019-04-10T09:07:11.739Z,18.97
2019-04-10T09:11:11.222Z,18.70
2019-04-10T09:15:11.796Z,16.57
2019-04-10T09:19:10.555Z,18.07
2019-04-10T09:23:21.464Z,20.37
2019-04-10T09:27:09.360Z,20.30
2019-04-10T09:31:09.242Z,20.23
2019-04-10T09:35:09.071Z,21.83
2019-04-10T09:39:09.429Z,26.77
2019-04-10T09:43:09.328Z,20.87
2019-04-10T09:47:08.165Z,25.43
2019-04-10T09:51:07.587Z,25.27
2019-04-10T09:55:07.634Z,23.63
2019-04-10T09:59:06.228Z,26.10
2019-04-10T10:03:05.601Z,21.00
2019-04-10T10:07:04.557Z,21.77
2019-04-10T10:11:04.032Z,23.83
2019-04-10T10:15:03.241Z,23.37
2019-04-10T10:19:04.398Z,21.97
2019-04-10T10:23:03.337Z,19.83
2019-04-10T10:27:02.239Z,21.07
2019-04-10T10:31:01.881Z,25.43
2019-04-10T10:35:01.063Z,23.70
2019-04-10T10:39:10.587Z,26.03
2019-04-10T10:43:04.783Z,20.70
2019-04-10T10:47:04.158Z,24.50
2019-04-10T10:51:02.944Z,23.50
2019-04-10T10:55:01.625Z,23.57
2019-04-10T10:59:00.875Z,26.80
2019-04-10T11:03:00.323Z,20.43
2019-04-10T11:07:01.099Z,18.23
2019-04-10T11:11:00.870Z,23.43
2019-04-10T11:14:59.820Z,26.77
2019-04-10T11:18:59.017Z,27.00
2019-04-10T11:22:57.836Z,18.00
2019-04-10T11:26:56.430Z,23.20
2019-04-10T11:30:56.099Z,24.07
2019-04-10T11:34:55.565Z,18.53
2019-04-10T11:38:55.996Z,23.83
2019-04-10T11:42:57.587Z,19.03
2019-04-10T11:46:58.743Z,25.00
2019-04-10T11:51:00.693Z,20.17
2019-04-10T11:55:06.820Z,18.27
2019-04-10T11:58:59.165Z,19.23
2019-04-10T12:03:00.725Z,21.10
2019-04-10T12:07:01.477Z,21.27
2019-04-10T12:14:57.384Z,22.80
2019-04-10T12:19:00.015Z,24.57
2019-04-10T12:22:58.756Z,23.63
2019-04-10T12:26:58.347Z,28.43
2019-04-10T12:30:57.104Z,24.43
2019-04-10T12:34:56.302Z,19.53
2019-04-10T12:38:56.111Z,24.07
2019-04-10T12:42:55.079Z,20.43
2019-04-10T12:46:54.264Z,23.37
2019-04-10T12:50:55.158Z,21.33
2019-04-10T12:54:53.865Z,23.40
2019-04-10T12:58:53.367Z,21.27
2019-04-10T13:02:52.466Z,21.33
2019-04-10T13:06:52.702Z,20.87
2019-04-10T13:10:51.921Z,23.20
2019-04-10T13:14:50.866Z,21.23
2019-04-10T13:18:54.515Z,21.67
2019-04-10T13:22:56.260Z,21.83
2019-04-10T13:26:56.526Z,23.13
2019-04-10T13:30:56.674Z,26.00
2019-04-10T13:34:55.551Z,20.03
2019-04-10T13:38:54.785Z,22.20
2019-04-10T13:42:53.764Z,21.50
2019-04-10T13:46:53.192Z,20.70
2019-04-10T13:50:51.960Z,24.60
2019-04-10T13:54:50.637Z,27.60
2019-04-10T13:58:49.332Z,21.50
2019-04-10T14:02:48.174Z,25.47
2019-04-10T14:06:49.129Z,20.37
2019-04-10T14:10:48.760Z,25.13
2019-04-10T14:14:47.526Z,17.90
2019-04-10T14:18:46.107Z,22.50
2019-04-10T14:22:46.677Z,20.57
2019-04-10T14:26:52.243Z,24.67
2019-04-10T14:30:50.247Z,21.90
2019-04-10T14:34:50.417Z,26.90
2019-04-10T14:38:51.532Z,20.80
2019-04-10T14:42:49.501Z,20.30
2019-04-10T14:46:48.106Z,22.90
2019-04-10T14:50:47.588Z,19.40
2019-04-10T14:54:46.259Z,19.10
2019-04-10T14:58:46.472Z,23.13
2019-04-10T15:02:46.520Z,17.80
2019-04-10T15:06:45.860Z,20.60
2019-04-10T15:10:44.738Z,14.70
2019-04-10T15:14:45.770Z,15.27
2019-04-10T15:18:45.848Z,16.47
2019-04-10T15:22:44.788Z,15.77
2019-04-10T15:26:44.368Z,14.70
2019-04-10T15:30:44.468Z,13.33
2019-04-10T15:34:43.766Z,12.47
2019-04-10T15:38:42.517Z,14.87
2019-04-10T15:42:41.022Z,14.73
2019-04-10T15:46:41.450Z,15.57
2019-04-10T15:50:39.886Z,15.40
2019-04-10T15:54:38.561Z,10.97
2019-04-10T15:58:37.402Z,14.77
2019-04-10T16:02:36.438Z,11.33
2019-04-10T16:06:35.541Z,14.40
2019-04-10T16:10:41.638Z,13.77
2019-04-10T16:14:40.624Z,13.63
2019-04-10T16:18:40.652Z,12.73
2019-04-10T16:22:41.254Z,15.33
2019-04-10T16:26:39.822Z,14.33
2019-04-10T16:30:38.989Z,16.63
2019-04-10T16:38:43.104Z,14.13
2019-04-10T16:42:43.653Z,14.17
2019-04-10T16:46:45.140Z,12.60
2019-04-10T16:50:43.980Z,16.50
2019-04-10T16:54:43.002Z,13.60
2019-04-10T16:58:42.682Z,17.40
2019-04-10T17:02:42.339Z,14.83
2019-04-10T17:06:42.031Z,11.13
2019-04-10T17:10:40.936Z,13.80
2019-04-10T17:14:39.925Z,16.83
2019-04-10T17:18:39.282Z,14.40
2019-04-10T17:22:43.874Z,14.67
2019-04-10T17:26:39.173Z,12.07
2019-04-10T17:30:38.131Z,10.47
2019-04-10T17:34:37.052Z,15.33
2019-04-10T17:38:36.528Z,9.77
2019-04-10T17:42:37.720Z,13.23
2019-04-10T17:46:35.885Z,12.50
2019-04-10T17:50:35.218Z,11.30
2019-04-10T17:54:34.573Z,14.57
2019-04-10T17:58:33.839Z,17.97
2019-04-10T18:02:32.823Z,14.80
2019-04-10T18:06:31.364Z,10.77
2019-04-10T18:10:41.098Z,11.90
2019-04-10T18:14:41.061Z,11.33
2019-04-10T18:18:40.129Z,12.03
2019-04-10T18:22:38.839Z,11.03
2019-04-10T18:26:41.542Z,14.70
2019-04-10T18:30:40.647Z,9.80
2019-04-10T18:34:40.373Z,11.23
2019-04-10T18:38:39.139Z,14.10
2019-04-10T18:42:38.538Z,11.10
2019-04-10T18:46:37.690Z,12.60
2019-04-10T18:50:36.427Z,11.27
2019-04-10T18:54:36.007Z,12.63
2019-04-10T18:58:36.362Z,15.97
2019-04-10T19:02:43.610Z,10.83
2019-04-10T19:06:44.767Z,12.67
2019-04-10T19:10:45.479Z,13.53
2019-04-10T19:14:46.710Z,18.43
2019-04-10T19:18:46.135Z,9.17
2019-04-10T19:22:44.786Z,13.93
2019-04-10T19:26:48.387Z,12.30
2019-04-10T19:30:51.132Z,10.47
2019-04-10T19:34:50.030Z,13.40
2019-04-10T19:38:49.624Z,13.70
2019-04-10T19:42:49.360Z,12.73
2019-04-10T19:46:48.138Z,9.87
2019-04-10T19:50:47.766Z,11.17
2019-04-10T19:54:47.274Z,12.97
2019-04-10T19:58:46.059Z,9.90
2019-04-10T20:02:45.554Z,9.60
2019-04-10T20:06:44.787Z,9.80
2019-04-10T20:10:43.706Z,14.53
2019-04-10T20:14:44.328Z,12.00
2019-04-10T20:18:43.217Z,9.60
2019-04-10T20:22:42.140Z,15.57
2019-04-10T20:26:40.713Z,12.60
2019-04-10T20:30:40.355Z,12.80
2019-04-10T20:34:39.907Z,12.50
2019-04-10T20:38:38.796Z,11.13
2019-04-10T20:42:38.272Z,15.33
2019-04-10T20:46:38.109Z,13.20
2019-04-10T20:50:36.931Z,10.27
2019-04-10T20:54:35.519Z,12.37
2019-04-10T20:58:44.833Z,9.67
2019-04-10T21:02:40.070Z,11.33
2019-04-10T21:06:40.853Z,8.70
2019-04-10T21:10:38.919Z,9.83
2019-04-10T21:14:38.029Z,10.47
2019-04-10T21:18:37.738Z,9.00
2019-04-10T21:22:36.783Z,13.53
2019-04-10T21:26:36.697Z,9.37
2019-04-10T21:30:37.217Z,11.80
2019-04-10T21:34:37.403Z,11.73
2019-04-10T21:38:36.523Z,8.67
2019-04-10T21:42:35.318Z,18.57
2019-04-10T21:46:34.652Z,9.10
2019-04-10T21:50:37.706Z,9.80
2019-04-10T21:54:35.078Z,7.70
2019-04-10T21:58:34.541Z,7.83
2019-04-10T22:02:33.203Z,10.80
2019-04-10T22:06:39.919Z,10.43
2019-04-10T22:10:40.500Z,8.83
2019-04-10T22:14:39.912Z,8.77
2019-04-10T22:18:39.386Z,11.07
2019-04-10T22:22:40.654Z,11.80
2019-04-10T22:26:40.129Z,9.67
2019-04-10T22:30:39.023Z,7.23
2019-04-10T22:34:38.462Z,10.40
2019-04-10T22:38:37.786Z,10.77
2019-04-10T22:42:43.003Z,11.50
2019-04-10T22:46:37.034Z,12.33
2019-04-10T22:50:36.485Z,12.27
2019-04-10T22:54:35.245Z,9.50
2019-04-10T22:58:33.809Z,13.17
2019-04-10T23:02:32.816Z,8.80
2019-04-10T23:06:35.213Z,9.50
2019-04-10T23:10:35.269Z,13.07
2019-04-10T23:14:34.452Z,11.43
2019-04-10T23:18:33.820Z,9.23
2019-04-10T23:22:35.505Z,10.07
2019-04-10T23:26:39.456Z,10.40
2019-04-10T23:30:39.222Z,8.00
2019-04-10T23:34:38.852Z,11.53
2019-04-10T23:38:37.792Z,12.27
2019-04-10T23:42:37.917Z,10.80
2019-04-10T23:46:36.882Z,9.40
2019-04-10T23:50:44.527Z,9.47
2019-04-10T23:54:43.649Z,11.67
2019-04-10T23:58:44.411Z,8.70
